Terminal Aerodrome Forecast
Issued by NWS

Home | Current Version | Previous Version | Text Only | Print | Product List | Glossary On
Versions: 1 2 3 4 5 6 7 8 9 10 11 12 13 14 15 16 17 18 19
532
FTUS41 KCLE 122252 AAB
TAFFDY
TAF AMD
KFDY 122252Z 1223/1318 30017G25KT P6SM BKN040
      TEMPO 1223/1303 4SM -SHSN OVC025
     FM130500 30015G25KT P6SM BKN025
     FM130900 30012G20KT P6SM BKN035=

USA.gov is the U.S. government's official web portal to all federal, state and local government web resources and services.